sensor_id;sensor_type;location;lat;lon;timestamp;temperature;humidity
50736;DHT22;36702;50.892;20.648;2024-01-06T00:00:18;27;81
50736;DHT22;36702;50.892;20.648;2024-01-06T00:10:28;27;81
50736;DHT22;36702;50.892;20.648;2024-01-06T00:20:02;27;81
50736;DHT22;36702;50.892;20.648;2024-01-06T00:30:12;27;81
50736;DHT22;36702;50.892;20.648;2024-01-06T00:40:08;27;81
50736;DHT22;36702;50.892;20.648;2024-01-06T00:50:05;27;81
50736;DHT22;36702;50.892;20.648;2024-01-06T01:00:06;27;81
50736;DHT22;36702;50.892;20.648;2024-01-06T01:10:13;26;82
50736;DHT22;36702;50.892;20.648;2024-01-06T01:20:11;26;82
50736;DHT22;36702;50.892;20.648;2024-01-06T01:30:13;26;82
50736;DHT22;36702;50.892;20.648;2024-01-06T01:40:13;26;82
50736;DHT22;36702;50.892;20.648;2024-01-06T01:50:16;26;82
50736;DHT22;36702;50.892;20.648;2024-01-06T02:00:03;26;82
50736;DHT22;36702;50.892;20.648;2024-01-06T02:10:06;26;82
50736;DHT22;36702;50.892;20.648;2024-01-06T02:20:08;26;82
50736;DHT22;36702;50.892;20.648;2024-01-06T02:30:19;26;82
50736;DHT22;36702;50.892;20.648;2024-01-06T02:40:03;26;82
50736;DHT22;36702;50.892;20.648;2024-01-06T02:50:02;26;82
50736;DHT22;36702;50.892;20.648;2024-01-06T03:00:05;26;82
50736;DHT22;36702;50.892;20.648;2024-01-06T03:10:03;26;82
50736;DHT22;36702;50.892;20.648;2024-01-06T03:20:11;26;82
50736;DHT22;36702;50.892;20.648;2024-01-06T03:30:03;26;82
50736;DHT22;36702;50.892;20.648;2024-01-06T03:40:12;27;78
50736;DHT22;36702;50.892;20.648;2024-01-06T03:50:10;27;78
50736;DHT22;36702;50.892;20.648;2024-01-06T04:00:07;27;78
50736;DHT22;36702;50.892;20.648;2024-01-06T04:10:20;27;78
50736;DHT22;36702;50.892;20.648;2024-01-06T04:20:06;27;78
50736;DHT22;36702;50.892;20.648;2024-01-06T04:30:14;27;78
50736;DHT22;36702;50.892;20.648;2024-01-06T04:40:10;27;78
50736;DHT22;36702;50.892;20.648;2024-01-06T04:50:03;27;78
50736;DHT22;36702;50.892;20.648;2024-01-06T05:00:03;27;78
50736;DHT22;36702;50.892;20.648;2024-01-06T05:10:03;27;78
50736;DHT22;36702;50.892;20.648;2024-01-06T05:20:14;27;78
50736;DHT22;36702;50.892;20.648;2024-01-06T05:30:07;27;78
50736;DHT22;36702;50.892;20.648;2024-01-06T05:40:03;26;80
50736;DHT22;36702;50.892;20.648;2024-01-06T05:50:15;26;80
50736;DHT22;36702;50.892;20.648;2024-01-06T06:00:15;26;80
50736;DHT22;36702;50.892;20.648;2024-01-06T06:10:12;26;80
50736;DHT22;36702;50.892;20.648;2024-01-06T06:20:13;26;80
50736;DHT22;36702;50.892;20.648;2024-01-06T06:30:12;26;80
50736;DHT22;36702;50.892;20.648;2024-01-06T06:40:09;27;78
50736;DHT22;36702;50.892;20.648;2024-01-06T06:50:09;27;78
50736;DHT22;36702;50.892;20.648;2024-01-06T07:00:13;27;78
50736;DHT22;36702;50.892;20.648;2024-01-06T07:10:07;27;78
50736;DHT22;36702;50.892;20.648;2024-01-06T07:20:10;27;78
50736;DHT22;36702;50.892;20.648;2024-01-06T07:30:06;27;78
50736;DHT22;36702;50.892;20.648;2024-01-06T07:40:08;27;78
50736;DHT22;36702;50.892;20.648;2024-01-06T07:50:07;27;78
50736;DHT22;36702;50.892;20.648;2024-01-06T08:00:16;27;78
50736;DHT22;36702;50.892;20.648;2024-01-06T08:10:15;27.47;79
50736;DHT22;36702;50.892;20.648;2024-01-06T08:20:11;27.47;79
50736;DHT22;36702;50.892;20.648;2024-01-06T08:30:06;27.47;79
50736;DHT22;36702;50.892;20.648;2024-01-06T08:40:08;27.47;79
50736;DHT22;36702;50.892;20.648;2024-01-06T08:50:11;27.47;79
50736;DHT22;36702;50.892;20.648;2024-01-06T09:00:06;27.47;79
50736;DHT22;36702;50.892;20.648;2024-01-06T09:10:03;27.44;79
50736;DHT22;36702;50.892;20.648;2024-01-06T09:20:08;27.44;79
50736;DHT22;36702;50.892;20.648;2024-01-06T09:30:09;27.44;79
50736;DHT22;36702;50.892;20.648;2024-01-06T09:40:31;27.51;79
50736;DHT22;36702;50.892;20.648;2024-01-06T09:50:10;27.51;79
50736;DHT22;36702;50.892;20.648;2024-01-06T10:00:03;27.51;79
50736;DHT22;36702;50.892;20.648;2024-01-06T10:20:18;27;79
50736;DHT22;36702;50.892;20.648;2024-01-06T10:30:12;27;79
50736;DHT22;36702;50.892;20.648;2024-01-06T10:40:15;27.56;79
50736;DHT22;36702;50.892;20.648;2024-01-06T10:50:03;27.56;79
50736;DHT22;36702;50.892;20.648;2024-01-06T11:00:03;27.56;79
50736;DHT22;36702;50.892;20.648;2024-01-06T11:10:18;27.56;79
50736;DHT22;36702;50.892;20.648;2024-01-06T11:20:08;27.56;79
50736;DHT22;36702;50.892;20.648;2024-01-06T11:30:08;27.56;79
50736;DHT22;36702;50.892;20.648;2024-01-06T11:40:10;27.57;79
50736;DHT22;36702;50.892;20.648;2024-01-06T11:50:03;27.57;79
50736;DHT22;36702;50.892;20.648;2024-01-06T12:00:19;27.57;79
50736;DHT22;36702;50.892;20.648;2024-01-06T12:10:09;27;79
50736;DHT22;36702;50.892;20.648;2024-01-06T12:20:03;27;79
50736;DHT22;36702;50.892;20.648;2024-01-06T12:30:05;27;79
50736;DHT22;36702;50.892;20.648;2024-01-06T12:50:09;27;78
50736;DHT22;36702;50.892;20.648;2024-01-06T13:00:07;27;78
50736;DHT22;36702;50.892;20.648;2024-01-06T13:10:06;27.59;77
50736;DHT22;36702;50.892;20.648;2024-01-06T13:20:02;27.59;77
50736;DHT22;36702;50.892;20.648;2024-01-06T13:30:03;27.59;77
50736;DHT22;36702;50.892;20.648;2024-01-06T13:40:13;27;77
50736;DHT22;36702;50.892;20.648;2024-01-06T14:00:20;27;77
50736;DHT22;36702;50.892;20.648;2024-01-06T14:10:05;27;77
50736;DHT22;36702;50.892;20.648;2024-01-06T14:20:18;27;77
50736;DHT22;36702;50.892;20.648;2024-01-06T14:30:03;27;77
50736;DHT22;36702;50.892;20.648;2024-01-06T14:40:07;27;79
50736;DHT22;36702;50.892;20.648;2024-01-06T14:50:05;27;79
50736;DHT22;36702;50.892;20.648;2024-01-06T15:00:12;27;79
50736;DHT22;36702;50.892;20.648;2024-01-06T15:10:03;27;80
50736;DHT22;36702;50.892;20.648;2024-01-06T15:20:03;27;80
50736;DHT22;36702;50.892;20.648;2024-01-06T15:30:04;27;80
50736;DHT22;36702;50.892;20.648;2024-01-06T15:40:03;27;80
50736;DHT22;36702;50.892;20.648;2024-01-06T15:50:04;27;80
50736;DHT22;36702;50.892;20.648;2024-01-06T16:00:03;27;80
50736;DHT22;36702;50.892;20.648;2024-01-06T16:10:08;27;80
50736;DHT22;36702;50.892;20.648;2024-01-06T16:20:06;27;80
50736;DHT22;36702;50.892;20.648;2024-01-06T16:30:06;27;80
50736;DHT22;36702;50.892;20.648;2024-01-06T16:40:13;27;80
50736;DHT22;36702;50.892;20.648;2024-01-06T16:50:02;27;80
50736;DHT22;36702;50.892;20.648;2024-01-06T17:10:13;27;80
50736;DHT22;36702;50.892;20.648;2024-01-06T17:20:13;27;80
50736;DHT22;36702;50.892;20.648;2024-01-06T17:50:03;27;80
50736;DHT22;36702;50.892;20.648;2024-01-06T18:00:07;27;80
50736;DHT22;36702;50.892;20.648;2024-01-06T18:20:15;27;79
50736;DHT22;36702;50.892;20.648;2024-01-06T18:30:14;27;79
50736;DHT22;36702;50.892;20.648;2024-01-06T18:50:20;27;79
50736;DHT22;36702;50.892;20.648;2024-01-06T19:20:15;27.46;79
50736;DHT22;36702;50.892;20.648;2024-01-06T23:20:02;27;78
50736;DHT22;36702;50.892;20.648;2024-01-06T23:30:15;27;78
50736;DHT22;36702;50.892;20.648;2024-01-06T23:40:10;27;78
50736;DHT22;36702;50.892;20.648;2024-01-06T23:50:06;27;78
